Time;durP1;ratioP1;P1;durP2;ratioP2;P2;SDS_P1;SDS_P2;PMS_P1;PMS_P2;Temp;Humidity;BMP_temperature;BMP_pressure;BME280_temperature;BME280_humidity;BME280_pressure;Samples;Min_cycle;Max_cycle;Signal;HPM_P1;HPM_P2
2021/06/17 00:04:16;;;;;;;10.37;9.37;;;;;;;;;;10289056;28;20663;-67
2021/06/17 00:09:14;;;;;;;10.75;9.70;;;;;;;;;;10281422;28;20297;-67
2021/06/17 00:14:11;;;;;;;9.93;8.93;;;;;;;;;;10270312;28;20038;-68
2021/06/17 00:19:09;;;;;;;10.80;9.75;;;;;;;;;;10292313;28;20029;-67
2021/06/17 00:24:06;;;;;;;10.07;9.07;;;;;;;;;;10270182;28;20030;-67
2021/06/17 00:29:04;;;;;;;10.55;9.68;;;;;;;;;;10295993;28;20030;-68
2021/06/17 00:34:01;;;;;;;13.65;12.25;;;;;;;;;;10285583;28;20037;-67
2021/06/17 00:38:59;;;;;;;11.60;10.50;;;;;;;;;;10266720;28;20102;-67
2021/06/17 00:43:57;;;;;;;10.57;9.57;;;;;;;;;;10287671;28;20436;-67
2021/06/17 00:48:54;;;;;;;;;;;;;;;;;;10270325;28;20026;-67
2021/06/17 00:53:51;;;;;;;14.07;12.63;;;;;;;;;;10289827;28;20209;-67
2021/06/17 00:58:49;;;;;;;;;;;;;;;;;;10280403;28;20062;-67
2021/06/17 01:03:46;;;;;;;11.30;10.20;;;;;;;;;;10292778;28;20374;-67
2021/06/17 01:08:43;;;;;;;;;;;;;;;;;;10295542;28;20033;-67
2021/06/17 01:13:53;;;;;;;11.25;10.15;;;;;;;;;;10290041;28;20324;-67
2021/06/17 01:18:52;;;;;;;11.90;10.63;;;;;;;;;;10268771;28;20045;-67
2021/06/17 01:24:18;;;;;;;12.55;10.80;;;;;;;;;;10276703;28;20037;-67
2021/06/17 01:29:20;;;;;;;11.55;10.25;;;;;;;;;;10280788;28;20040;-68
2021/06/17 01:34:18;;;;;;;12.32;11.10;;;;;;;;;;10268452;28;20425;-67
2021/06/17 01:39:17;;;;;;;13.30;12.10;;;;;;;;;;10288769;28;20504;-67
2021/06/17 01:44:19;;;;;;;12.10;10.85;;;;;;;;;;10299346;28;20029;-67
2021/06/17 01:49:17;;;;;;;11.50;10.48;;;;;;;;;;10280366;28;20034;-67
2021/06/17 01:54:21;;;;;;;11.77;10.55;;;;;;;;;;10281420;28;20026;-67
2021/06/17 01:59:19;;;;;;;11.85;10.70;;;;;;;;;;10301349;28;20120;-67
2021/06/17 02:04:20;;;;;;;11.05;9.95;;;;;;;;;;10281769;28;20064;-68
2021/06/17 02:09:18;;;;;;;11.85;10.75;;;;;;;;;;10304116;28;20042;-67
2021/06/17 02:14:15;;;;;;;;;;;;;;;;;;10314153;28;20104;-67
2021/06/17 02:19:16;;;;;;;11.30;10.30;;;;;;;;;;10297162;28;20363;-67
2021/06/17 02:24:13;;;;;;;11.18;10.13;;;;;;;;;;10297958;28;20041;-67
2021/06/17 02:29:11;;;;;;;;;;;;;;;;;;10287553;28;20042;-67
2021/06/17 02:34:09;;;;;;;11.65;10.55;;;;;;;;;;10276420;28;19913;-67
2021/06/17 02:39:07;;;;;;;11.32;10.32;;;;;;;;;;10313044;28;20095;-66
2021/06/17 02:44:05;;;;;;;10.75;9.75;;;;;;;;;;10280729;28;20029;-66
2021/06/17 02:49:06;;;;;;;11.43;10.25;;;;;;;;;;10313270;28;20052;-67
2021/06/17 02:54:04;;;;;;;11.68;10.52;;;;;;;;;;10279206;28;20080;-66
2021/06/17 02:59:16;;;;;;;10.50;9.63;;;;;;;;;;10300410;28;20045;-67
2021/06/17 03:04:37;;;;;;;11.05;10.00;;;;;;;;;;10304434;28;20037;-66
2021/06/17 03:09:41;;;;;;;11.25;9.95;;;;;;;;;;10279427;28;20049;-67
2021/06/17 03:14:40;;;;;;;12.63;11.43;;;;;;;;;;10317374;28;20033;-66
2021/06/17 03:19:37;;;;;;;13.55;12.15;;;;;;;;;;10285473;28;20064;-66
2021/06/17 03:24:37;;;;;;;11.63;10.53;;;;;;;;;;10283776;28;20026;-67
2021/06/17 03:29:36;;;;;;;12.50;10.45;;;;;;;;;;10284447;28;20484;-66
2021/06/17 03:34:35;;;;;;;11.48;10.45;;;;;;;;;;10301613;28;20026;-66
2021/06/17 03:39:33;;;;;;;11.43;10.23;;;;;;;;;;10300830;28;20102;-66
2021/06/17 03:44:30;;;;;;;11.20;10.20;;;;;;;;;;10298388;28;20037;-67
2021/06/17 03:49:27;;;;;;;;;;;;;;;;;;10316730;28;20040;-66
2021/06/17 03:54:27;;;;;;;11.23;9.93;;;;;;;;;;10303759;28;20309;-66
2021/06/17 03:59:45;;;;;;;11.82;10.65;;;;;;;;;;10301045;28;20041;-66
2021/06/17 04:04:43;;;;;;;12.95;11.70;;;;;;;;;;10296602;28;20029;-66
2021/06/17 04:09:43;;;;;;;13.45;12.15;;;;;;;;;;10271361;28;20042;-65
2021/06/17 04:14:43;;;;;;;13.00;10.82;;;;;;;;;;10276665;28;20048;-65
2021/06/17 04:19:42;;;;;;;11.88;10.05;;;;;;;;;;10269712;28;20037;-65
2021/06/17 04:24:41;;;;;;;12.63;11.43;;;;;;;;;;10284063;28;20113;-65
2021/06/17 04:29:39;;;;;;;12.05;10.70;;;;;;;;;;10284829;28;20060;-66
2021/06/17 04:34:39;;;;;;;12.60;10.75;;;;;;;;;;10276960;28;20496;-66
2021/06/17 04:39:39;;;;;;;14.02;11.98;;;;;;;;;;10257539;28;20108;-66
2021/06/17 04:44:41;;;;;;;12.55;11.10;;;;;;;;;;10279388;28;20313;-66
2021/06/17 04:49:38;;;;;;;14.65;13.02;;;;;;;;;;10282382;28;20430;-66
2021/06/17 04:54:36;;;;;;;14.55;13.05;;;;;;;;;;10263524;28;20107;-66
2021/06/17 04:59:34;;;;;;;12.70;11.40;;;;;;;;;;10264628;28;20064;-66
2021/06/17 05:04:31;;;;;;;;;;;;;;;;;;10287725;28;20147;-66
2021/06/17 05:14:44;;;;;;;13.55;12.15;;;;;;;;;;10288290;28;20137;-66
2021/06/17 05:19:42;;;;;;;13.40;11.68;;;;;;;;;;10281761;28;20156;-66
2021/06/17 05:24:39;;;;;;;;;;;;;;;;;;10302820;28;20133;-66
2021/06/17 05:29:37;;;;;;;13.47;11.90;;;;;;;;;;10320003;28;19917;-67
2021/06/17 05:34:34;;;;;;;;;;;;;;;;;;10306361;28;20275;-67
2021/06/17 05:39:31;;;;;;;12.90;11.48;;;;;;;;;;10312597;28;19921;-66
2021/06/17 05:44:29;;;;;;;14.23;11.25;;;;;;;;;;10270183;28;20377;-65
2021/06/17 05:49:26;;;;;;;11.87;10.03;;;;;;;;;;10308872;28;20047;-66
2021/06/17 05:54:24;;;;;;;11.57;10.30;;;;;;;;;;10306793;28;20355;-67
2021/06/17 05:59:21;;;;;;;11.77;10.20;;;;;;;;;;10322793;28;20275;-66
2021/06/17 06:04:18;;;;;;;15.10;10.10;;;;;;;;;;10288779;28;20276;-66
2021/06/17 06:09:16;;;;;;;14.20;9.98;;;;;;;;;;10321217;28;20086;-65
2021/06/17 06:14:13;;;;;;;14.00;9.93;;;;;;;;;;10307127;28;20036;-66
2021/06/17 06:19:11;;;;;;;14.57;10.73;;;;;;;;;;10312906;28;20268;-67
2021/06/17 06:24:08;;;;;;;11.47;9.27;;;;;;;;;;10310635;28;20574;-67
2021/06/17 06:29:06;;;;;;;10.95;9.40;;;;;;;;;;10297686;28;20346;-67
2021/06/17 06:34:03;;;;;;;14.20;9.63;;;;;;;;;;10314271;28;20103;-65
2021/06/17 06:39:01;;;;;;;10.80;9.10;;;;;;;;;;10303044;28;20280;-65
2021/06/17 06:43:59;;;;;;;11.80;9.10;;;;;;;;;;10266857;28;20387;-65
2021/06/17 06:48:56;;;;;;;9.68;8.68;;;;;;;;;;10306611;28;20065;-66
2021/06/17 06:53:54;;;;;;;11.45;8.68;;;;;;;;;;10287502;28;20029;-66
2021/06/17 06:58:53;;;;;;;10.53;8.27;;;;;;;;;;10312764;28;20041;-66
2021/06/17 07:03:50;;;;;;;11.35;7.95;;;;;;;;;;10277042;28;20033;-66
2021/06/17 07:08:48;;;;;;;9.33;7.47;;;;;;;;;;10309313;28;20046;-65
2021/06/17 07:13:45;;;;;;;12.82;7.85;;;;;;;;;;10289753;28;20124;-66
2021/06/17 07:18:43;;;;;;;8.05;7.22;;;;;;;;;;10287794;28;20643;-66
2021/06/17 07:23:40;;;;;;;10.17;8.07;;;;;;;;;;10300040;28;20033;-69
2021/06/17 07:28:39;;;;;;;9.73;7.30;;;;;;;;;;10324349;28;20722;-69
2021/06/17 07:33:37;;;;;;;8.07;7.03;;;;;;;;;;10315819;28;20021;-67
2021/06/17 07:38:35;;;;;;;8.27;7.40;;;;;;;;;;10322051;28;20547;-67
2021/06/17 07:43:33;;;;;;;9.40;7.53;;;;;;;;;;10309055;28;20033;-66
2021/06/17 07:48:32;;;;;;;9.15;7.28;;;;;;;;;;10304477;28;20281;-66
2021/06/17 07:53:29;;;;;;;8.80;7.43;;;;;;;;;;10324815;28;20063;-66
2021/06/17 07:58:27;;;;;;;11.17;7.57;;;;;;;;;;10316528;28;20036;-66
2021/06/17 08:03:24;;;;;;;9.80;7.33;;;;;;;;;;10340317;28;20036;-67
2021/06/17 08:08:22;;;;;;;7.87;6.60;;;;;;;;;;10358399;28;20033;-66
2021/06/17 08:13:20;;;;;;;8.40;6.68;;;;;;;;;;10338283;28;20296;-66
2021/06/17 08:18:18;;;;;;;7.65;6.57;;;;;;;;;;10310272;28;20084;-67
2021/06/17 08:23:19;;;;;;;8.90;6.43;;;;;;;;;;10321808;28;20040;-66
2021/06/17 08:28:16;;;;;;;6.93;6.20;;;;;;;;;;10341247;28;20040;-67
2021/06/17 08:33:15;;;;;;;8.38;6.30;;;;;;;;;;10289387;28;20037;-67
2021/06/17 08:38:13;;;;;;;8.98;5.90;;;;;;;;;;10331744;28;20038;-67
2021/06/17 08:43:10;;;;;;;7.97;5.70;;;;;;;;;;10313920;28;20149;-69
2021/06/17 08:48:08;;;;;;;6.40;5.60;;;;;;;;;;10302587;28;20368;-68
2021/06/17 08:53:06;;;;;;;8.48;6.28;;;;;;;;;;10306158;28;20037;-68
2021/06/17 08:58:03;;;;;;;7.65;6.47;;;;;;;;;;10323998;28;20048;-70
2021/06/17 09:03:05;;;;;;;8.47;6.00;;;;;;;;;;10315930;28;20033;-68
2021/06/17 09:08:02;;;;;;;7.22;5.32;;;;;;;;;;10296759;28;20305;-68
2021/06/17 09:13:04;;;;;;;7.03;5.95;;;;;;;;;;10323690;28;20049;-72
2021/06/17 09:18:08;;;;;;;6.32;5.50;;;;;;;;;;10319083;28;20036;-68
2021/06/17 09:23:16;;;;;;;6.15;5.50;;;;;;;;;;10307206;28;20025;-67
2021/06/17 09:28:13;;;;;;;9.98;6.55;;;;;;;;;;10309610;28;20072;-67
2021/06/17 09:33:12;;;;;;;5.68;5.18;;;;;;;;;;10315702;28;20535;-67
2021/06/17 09:38:10;;;;;;;5.55;5.07;;;;;;;;;;10332553;28;20038;-67
2021/06/17 09:43:16;;;;;;;7.63;5.13;;;;;;;;;;10325465;28;20029;-69
2021/06/17 09:48:14;;;;;;;;;;;;;;;;;;10334921;28;20132;-68
2021/06/17 09:53:11;;;;;;;;;;;;;;;;;;10314950;28;20007;-68
2021/06/17 09:58:10;;;;;;;5.50;4.68;;;;;;;;;;10304118;28;20139;-70
2021/06/17 10:03:16;;;;;;;6.63;4.68;;;;;;;;;;10261875;28;20502;-69
2021/06/17 10:08:13;;;;;;;;;;;;;;;;;;10294987;28;20041;-68
2021/06/17 10:13:11;;;;;;;5.07;4.45;;;;;;;;;;10285718;28;19921;-66
2021/06/17 10:18:09;;;;;;;4.78;4.28;;;;;;;;;;10271489;28;20030;-65
2021/06/17 10:23:06;;;;;;;5.57;4.03;;;;;;;;;;10285010;28;20031;-70
2021/06/17 10:28:04;;;;;;;6.15;4.05;;;;;;;;;;10322536;28;20331;-67
2021/06/17 10:33:01;;;;;;;5.87;3.80;;;;;;;;;;10327818;28;20132;-67
2021/06/17 10:38:01;;;;;;;4.65;4.15;;;;;;;;;;10324319;28;20272;-68
2021/06/17 10:43:00;;;;;;;5.63;3.80;;;;;;;;;;10327737;28;20507;-67
2021/06/17 10:47:59;;;;;;;4.68;3.70;;;;;;;;;;10323458;28;20036;-67
2021/06/17 10:53:13;;;;;;;4.20;3.30;;;;;;;;;;10326811;28;20495;-67
2021/06/17 10:58:11;;;;;;;4.30;3.40;;;;;;;;;;10335373;28;20048;-66
2021/06/17 11:03:08;;;;;;;4.43;3.30;;;;;;;;;;10351474;28;20043;-66
2021/06/17 11:08:21;;;;;;;4.60;3.53;;;;;;;;;;10328330;28;20529;-66
2021/06/17 11:13:39;;;;;;;5.53;3.30;;;;;;;;;;10310943;28;20034;-68
2021/06/17 11:18:43;;;;;;;6.30;3.40;;;;;;;;;;10269149;28;20037;-68
2021/06/17 11:23:41;;;;;;;3.75;3.33;;;;;;;;;;10281127;28;20041;-68
2021/06/17 11:28:48;;;;;;;4.43;2.83;;;;;;;;;;10298258;28;20037;-68
2021/06/17 11:33:46;;;;;;;4.25;3.40;;;;;;;;;;10327403;28;20052;-68
2021/06/17 11:38:44;;;;;;;5.28;3.30;;;;;;;;;;10311260;28;20033;-68
2021/06/17 11:43:42;;;;;;;4.75;3.40;;;;;;;;;;10302160;28;20026;-68
2021/06/17 11:48:50;;;;;;;4.07;3.30;;;;;;;;;;10320491;28;20045;-69
2021/06/17 11:53:49;;;;;;;4.80;3.10;;;;;;;;;;10323386;28;20033;-68
2021/06/17 11:58:47;;;;;;;3.22;2.92;;;;;;;;;;10310305;28;20108;-68
2021/06/17 12:03:52;;;;;;;3.97;2.90;;;;;;;;;;10302826;28;20121;-68
2021/06/17 12:09:05;;;;;;;4.55;3.40;;;;;;;;;;10303801;28;20033;-68
2021/06/17 12:14:04;;;;;;;4.20;3.13;;;;;;;;;;10303824;28;20040;-68
2021/06/17 12:19:02;;;;;;;4.47;3.30;;;;;;;;;;10310963;28;20559;-68
2021/06/17 12:23:59;;;;;;;3.30;3.00;;;;;;;;;;10326970;28;20373;-68
2021/06/17 12:28:58;;;;;;;4.75;3.28;;;;;;;;;;10333813;28;20274;-66
2021/06/17 12:34:13;;;;;;;3.83;3.40;;;;;;;;;;10324603;28;20068;-66
2021/06/17 12:39:12;;;;;;;5.53;3.33;;;;;;;;;;10342908;28;20231;-66
2021/06/17 12:44:10;;;;;;;4.57;4.07;;;;;;;;;;10303222;28;20036;-69
2021/06/17 12:54:07;;;;;;;7.32;3.42;;;;;;;;;;10310243;28;20098;-69
2021/06/17 12:59:05;;;;;;;5.10;3.50;;;;;;;;;;10322729;28;20127;-69
2021/06/17 13:04:11;;;;;;;5.63;3.40;;;;;;;;;;10325091;28;20534;-70
2021/06/17 13:09:37;;;;;;;4.93;3.63;;;;;;;;;;10302276;28;20025;-67
2021/06/17 13:14:56;;;;;;;4.00;3.60;;;;;;;;;;10250703;28;20037;-68
2021/06/17 13:19:54;;;;;;;5.55;3.75;;;;;;;;;;10277028;28;20549;-68
2021/06/17 13:24:52;;;;;;;4.45;3.40;;;;;;;;;;10266310;28;20033;-68
2021/06/17 13:29:54;;;;;;;3.47;3.22;;;;;;;;;;10253773;28;20037;-67
2021/06/17 13:34:51;;;;;;;3.83;3.40;;;;;;;;;;10302059;28;20030;-68
2021/06/17 13:39:49;;;;;;;4.17;3.60;;;;;;;;;;10258495;28;20535;-69
2021/06/17 13:44:49;;;;;;;5.97;3.78;;;;;;;;;;10279583;28;20626;-70
2021/06/17 13:49:46;;;;;;;4.07;3.67;;;;;;;;;;10307559;28;20577;-70
2021/06/17 13:54:44;;;;;;;3.88;3.42;;;;;;;;;;10280575;28;20389;-69
2021/06/17 13:59:41;;;;;;;3.67;3.33;;;;;;;;;;10270876;28;20114;-69
2021/06/17 14:04:39;;;;;;;5.50;3.55;;;;;;;;;;10275972;28;20515;-70
2021/06/17 14:09:37;;;;;;;3.97;3.08;;;;;;;;;;10285749;28;20033;-69
2021/06/17 14:14:34;;;;;;;4.60;3.63;;;;;;;;;;10286057;28;20472;-69
2021/06/17 14:19:32;;;;;;;3.77;3.10;;;;;;;;;;10295628;28;21263;-70
2021/06/17 14:24:31;;;;;;;4.07;3.10;;;;;;;;;;10300910;28;20633;-70
2021/06/17 14:29:29;;;;;;;5.15;3.20;;;;;;;;;;10291107;28;20131;-71
2021/06/17 14:34:29;;;;;;;4.60;3.40;;;;;;;;;;10295181;28;20176;-72
2021/06/17 14:39:28;;;;;;;4.40;3.60;;;;;;;;;;10248397;28;20061;-66
2021/06/17 14:44:26;;;;;;;5.38;3.50;;;;;;;;;;10265193;28;20133;-66
2021/06/17 14:49:23;;;;;;;5.83;3.80;;;;;;;;;;10246530;28;20046;-66
2021/06/17 14:54:21;;;;;;;5.97;3.90;;;;;;;;;;10265343;28;20041;-66
2021/06/17 14:59:18;;;;;;;6.17;3.93;;;;;;;;;;10265236;28;20042;-66
2021/06/17 15:04:16;;;;;;;5.22;4.28;;;;;;;;;;10247640;28;20363;-67
2021/06/17 15:09:14;;;;;;;3.78;3.22;;;;;;;;;;10246884;28;20038;-66
2021/06/17 15:14:11;;;;;;;5.50;3.47;;;;;;;;;;10265040;28;20083;-66
2021/06/17 15:19:12;;;;;;;3.47;3.17;;;;;;;;;;10264482;28;20088;-66
2021/06/17 15:24:10;;;;;;;4.30;3.30;;;;;;;;;;10246278;28;20416;-66
2021/06/17 15:29:08;;;;;;;3.83;3.25;;;;;;;;;;10303256;28;20316;-68
2021/06/17 15:34:05;;;;;;;3.70;3.25;;;;;;;;;;10273279;28;20443;-70
2021/06/17 15:39:04;;;;;;;4.60;3.17;;;;;;;;;;10299495;28;20427;-69
2021/06/17 15:44:02;;;;;;;4.70;3.13;;;;;;;;;;10290023;28;20033;-70
2021/06/17 15:49:02;;;;;;;3.20;2.90;;;;;;;;;;10266824;28;20045;-67
2021/06/17 15:54:00;;;;;;;4.25;3.55;;;;;;;;;;10298728;28;20036;-67
2021/06/17 15:58:58;;;;;;;4.47;3.40;;;;;;;;;;10278812;28;20038;-67
2021/06/17 16:03:56;;;;;;;4.22;3.17;;;;;;;;;;10269331;28;20036;-70
2021/06/17 16:08:53;;;;;;;3.73;3.20;;;;;;;;;;10279691;28;20346;-70
2021/06/17 16:13:51;;;;;;;4.07;3.47;;;;;;;;;;10259096;28;20033;-70
2021/06/17 16:18:48;;;;;;;3.40;3.10;;;;;;;;;;10257335;28;20526;-70
2021/06/17 16:23:46;;;;;;;4.03;3.53;;;;;;;;;;10274919;28;20049;-69
2021/06/17 16:28:43;;;;;;;3.73;3.43;;;;;;;;;;10311511;28;20514;-69
2021/06/17 16:33:41;;;;;;;3.92;3.20;;;;;;;;;;10323281;28;20288;-69
2021/06/17 16:38:38;;;;;;;5.73;3.20;;;;;;;;;;10306623;28;20029;-69
2021/06/17 16:43:37;;;;;;;5.72;3.42;;;;;;;;;;10318181;28;20451;-69
2021/06/17 16:48:35;;;;;;;4.55;3.58;;;;;;;;;;10298067;28;20037;-69
2021/06/17 16:53:32;;;;;;;4.15;3.25;;;;;;;;;;10273155;28;20041;-69
2021/06/17 16:58:30;;;;;;;3.80;3.40;;;;;;;;;;10264874;28;20119;-69
2021/06/17 17:03:30;;;;;;;3.95;3.20;;;;;;;;;;10277284;28;20717;-69
2021/06/17 17:08:28;;;;;;;3.53;3.22;;;;;;;;;;10271948;28;20475;-69
2021/06/17 17:13:26;;;;;;;4.00;3.60;;;;;;;;;;10302879;28;20136;-69
2021/06/17 17:18:23;;;;;;;4.25;3.55;;;;;;;;;;10288415;28;20041;-67
2021/06/17 17:23:21;;;;;;;7.88;3.53;;;;;;;;;;10285414;28;20055;-68
2021/06/17 17:28:18;;;;;;;5.43;4.00;;;;;;;;;;10278438;28;20041;-68
2021/06/17 17:33:17;;;;;;;7.17;3.53;;;;;;;;;;10280857;28;20029;-68
2021/06/17 17:38:15;;;;;;;10.45;3.67;;;;;;;;;;10323237;28;20294;-67
2021/06/17 17:43:12;;;;;;;3.65;3.35;;;;;;;;;;10318503;28;20039;-68
2021/06/17 17:48:10;;;;;;;4.25;3.53;;;;;;;;;;10328354;28;20040;-68
2021/06/17 17:53:08;;;;;;;5.53;3.95;;;;;;;;;;10317296;28;20041;-68
2021/06/17 17:58:05;;;;;;;6.63;3.60;;;;;;;;;;10292203;28;20036;-69
2021/06/17 18:03:05;;;;;;;3.60;3.30;;;;;;;;;;10319320;28;20137;-68
2021/06/17 18:08:04;;;;;;;3.50;3.20;;;;;;;;;;10308582;28;20033;-68
2021/06/17 18:13:02;;;;;;;5.35;3.70;;;;;;;;;;10296888;28;20971;-68
2021/06/17 18:18:01;;;;;;;4.28;3.55;;;;;;;;;;10289222;28;20055;-68
2021/06/17 18:22:59;;;;;;;6.22;4.05;;;;;;;;;;10307325;28;20116;-67
2021/06/17 18:27:56;;;;;;;6.82;3.92;;;;;;;;;;10266116;28;20613;-66
2021/06/17 18:32:54;;;;;;;5.53;4.30;;;;;;;;;;10266047;28;20033;-67
2021/06/17 18:37:51;;;;;;;6.40;3.78;;;;;;;;;;10286780;28;20025;-67
2021/06/17 18:42:49;;;;;;;5.67;4.13;;;;;;;;;;10273587;28;20037;-67
2021/06/17 18:47:46;;;;;;;8.10;4.30;;;;;;;;;;10288541;28;20129;-67
2021/06/17 18:52:44;;;;;;;6.50;4.53;;;;;;;;;;10308670;28;20303;-67
2021/06/17 18:57:42;;;;;;;5.57;4.17;;;;;;;;;;10308365;28;20071;-67
2021/06/17 19:02:39;;;;;;;5.65;3.58;;;;;;;;;;10285099;28;20098;-67
2021/06/17 19:07:37;;;;;;;6.78;4.55;;;;;;;;;;10284004;28;20047;-67
2021/06/17 19:12:35;;;;;;;5.07;3.75;;;;;;;;;;10283004;28;20048;-67
2021/06/17 19:17:32;;;;;;;5.22;4.72;;;;;;;;;;10269112;28;20033;-67
2021/06/17 19:22:30;;;;;;;9.23;4.53;;;;;;;;;;10282483;28;20723;-67
2021/06/17 19:27:28;;;;;;;4.97;4.20;;;;;;;;;;10262773;28;20369;-67
2021/06/17 19:32:25;;;;;;;5.95;4.82;;;;;;;;;;10288227;28;20128;-67
2021/06/17 19:37:23;;;;;;;6.57;4.82;;;;;;;;;;10290164;28;20315;-67
2021/06/17 19:42:21;;;;;;;4.57;3.97;;;;;;;;;;10259212;28;20034;-68
2021/06/17 19:47:18;;;;;;;5.32;4.35;;;;;;;;;;10274619;28;20283;-67
2021/06/17 19:52:16;;;;;;;6.70;4.30;;;;;;;;;;10266822;28;20057;-67
2021/06/17 19:57:14;;;;;;;6.05;4.50;;;;;;;;;;10264409;28;20052;-66
2021/06/17 20:02:19;;;;;;;6.43;3.83;;;;;;;;;;10297350;28;20305;-66
2021/06/17 20:07:16;;;;;;;7.80;4.68;;;;;;;;;;10297864;28;20440;-67
2021/06/17 20:12:16;;;;;;;7.80;4.50;;;;;;;;;;10254461;28;20118;-67
2021/06/17 20:17:14;;;;;;;6.63;4.68;;;;;;;;;;10284190;28;20458;-67
2021/06/17 20:22:12;;;;;;;6.50;4.43;;;;;;;;;;10269547;28;20242;-67
2021/06/17 20:27:09;;;;;;;6.35;4.35;;;;;;;;;;10276585;28;20042;-67
2021/06/17 20:32:07;;;;;;;5.05;4.38;;;;;;;;;;10296946;28;20124;-67
2021/06/17 20:37:04;;;;;;;5.45;4.25;;;;;;;;;;10278913;28;20079;-68
2021/06/17 20:42:02;;;;;;;5.85;4.57;;;;;;;;;;10261946;28;20033;-67
2021/06/17 20:46:59;;;;;;;7.43;4.65;;;;;;;;;;10292334;28;20049;-67
2021/06/17 20:51:57;;;;;;;6.73;5.00;;;;;;;;;;10286810;28;20222;-68
2021/06/17 20:56:54;;;;;;;6.10;4.53;;;;;;;;;;10298709;28;20029;-68
2021/06/17 21:01:52;;;;;;;6.90;4.47;;;;;;;;;;10273232;28;20034;-68
2021/06/17 21:06:49;;;;;;;8.15;4.97;;;;;;;;;;10289212;28;20530;-65
2021/06/17 21:11:47;;;;;;;7.28;4.63;;;;;;;;;;10294806;28;20030;-66
2021/06/17 21:16:45;;;;;;;8.85;5.40;;;;;;;;;;10300582;28;20121;-67
2021/06/17 21:21:43;;;;;;;7.13;4.90;;;;;;;;;;10282832;28;20125;-67
2021/06/17 21:26:40;;;;;;;9.73;4.68;;;;;;;;;;10288075;28;20041;-67
2021/06/17 21:31:38;;;;;;;7.70;4.97;;;;;;;;;;10271856;28;20353;-66
2021/06/17 21:36:35;;;;;;;6.82;4.65;;;;;;;;;;10284232;28;20363;-66
2021/06/17 21:41:33;;;;;;;8.10;4.93;;;;;;;;;;10296935;28;20075;-66
2021/06/17 21:46:30;;;;;;;6.93;4.97;;;;;;;;;;10291072;28;20288;-67
2021/06/17 21:51:28;;;;;;;6.07;4.47;;;;;;;;;;10302061;28;20124;-67
2021/06/17 21:56:27;;;;;;;6.57;4.72;;;;;;;;;;10299822;28;20065;-66
2021/06/17 22:01:24;;;;;;;6.82;4.68;;;;;;;;;;10293907;28;20479;-66
2021/06/17 22:06:22;;;;;;;8.43;5.10;;;;;;;;;;10286272;28;20064;-67
2021/06/17 22:11:19;;;;;;;5.93;5.32;;;;;;;;;;10302982;28;20303;-67
2021/06/17 22:16:19;;;;;;;7.77;4.97;;;;;;;;;;10300844;28;20025;-67
2021/06/17 22:21:18;;;;;;;6.63;5.70;;;;;;;;;;10275556;28;20571;-67
2021/06/17 22:26:15;;;;;;;7.25;5.20;;;;;;;;;;10301934;28;20467;-67
2021/06/17 22:31:12;;;;;;;9.13;6.13;;;;;;;;;;10283926;28;20447;-65
2021/06/17 22:41:41;;;;;;;7.68;5.80;;;;;;;;;;10325975;28;20045;-68
2021/06/17 22:46:39;;;;;;;7.53;5.60;;;;;;;;;;10322227;28;20036;-68
2021/06/17 22:51:36;;;;;;;6.50;5.50;;;;;;;;;;10324250;28;20111;-66
2021/06/17 22:56:34;;;;;;;6.20;5.60;;;;;;;;;;10338443;28;20360;-66
2021/06/17 23:01:31;;;;;;;6.65;5.85;;;;;;;;;;10322226;28;20033;-67
2021/06/17 23:06:29;;;;;;;7.70;6.17;;;;;;;;;;10321818;28;20401;-66
2021/06/17 23:11:26;;;;;;;6.53;5.60;;;;;;;;;;10322755;28;20287;-66
2021/06/17 23:16:24;;;;;;;8.00;5.67;;;;;;;;;;10321477;28;20079;-66
2021/06/17 23:21:21;;;;;;;8.50;6.37;;;;;;;;;;10323643;28;20279;-64
2021/06/17 23:26:19;;;;;;;8.02;6.00;;;;;;;;;;10337247;28;20287;-68
2021/06/17 23:31:16;;;;;;;8.93;6.93;;;;;;;;;;10298394;28;20026;-66
2021/06/17 23:36:14;;;;;;;6.72;5.57;;;;;;;;;;10325954;28;20026;-66
2021/06/17 23:41:11;;;;;;;6.30;5.70;;;;;;;;;;10329558;28;20049;-64
2021/06/17 23:46:09;;;;;;;9.00;5.93;;;;;;;;;;10335785;28;20503;-68
2021/06/17 23:51:07;;;;;;;9.27;5.97;;;;;;;;;;10320188;28;20490;-65
2021/06/17 23:56:04;;;;;;;6.65;6.03;;;;;;;;;;10331657;28;20044;-65
